createdAt,value
2023-03-19T00:00:33.914Z,31.08
2023-03-19T00:03:00.675Z,27.98
2023-03-19T00:05:27.252Z,28.80
2023-03-19T00:07:53.644Z,28.25
2023-03-19T00:10:20.557Z,28.77
2023-03-19T00:12:47.392Z,29.40
2023-03-19T00:15:15.324Z,28.08
2023-03-19T00:17:43.004Z,28.35
2023-03-19T00:20:11.677Z,27.90
2023-03-19T00:22:39.800Z,28.50
2023-03-19T00:25:08.152Z,29.77
2023-03-19T00:27:34.852Z,29.17
2023-03-19T00:30:02.537Z,27.48
2023-03-19T00:32:29.287Z,29.48
2023-03-19T00:34:55.716Z,28.50
2023-03-19T00:37:22.541Z,27.50
2023-03-19T00:39:49.158Z,28.80
2023-03-19T00:42:15.638Z,28.20
2023-03-19T00:44:42.114Z,27.98
2023-03-19T00:47:08.645Z,26.60
2023-03-19T00:49:35.269Z,27.70
2023-03-19T00:52:01.763Z,27.30
2023-03-19T00:54:28.176Z,26.65
2023-03-19T00:56:54.590Z,27.15
2023-03-19T00:59:21.032Z,26.58
2023-03-19T01:01:47.569Z,27.05
2023-03-19T01:04:15.108Z,26.08
2023-03-19T01:06:41.837Z,26.70
2023-03-19T01:09:08.467Z,27.90
2023-03-19T01:11:35.262Z,27.23
2023-03-19T01:14:02.484Z,28.88
2023-03-19T01:16:29.123Z,28.33
2023-03-19T01:18:55.625Z,28.55
2023-03-19T01:21:22.077Z,27.50
2023-03-19T01:23:48.686Z,28.00
2023-03-19T01:26:15.313Z,27.48
2023-03-19T01:28:41.900Z,28.52
2023-03-19T01:31:09.522Z,27.02
2023-03-19T01:33:37.584Z,26.50
2023-03-19T01:36:05.479Z,27.38
2023-03-19T01:38:32.542Z,25.73
2023-03-19T01:40:59.246Z,26.52
2023-03-19T01:43:28.782Z,25.58
2023-03-19T01:46:27.090Z,26.48
2023-03-19T01:49:00.101Z,24.83
2023-03-19T01:51:31.962Z,25.83
2023-03-19T01:54:09.377Z,25.25
2023-03-19T01:56:38.609Z,25.13
2023-03-19T01:59:17.872Z,24.95
2023-03-19T02:01:58.249Z,24.83
2023-03-19T02:04:27.296Z,24.75
2023-03-19T02:06:58.032Z,23.95
2023-03-19T02:09:26.097Z,24.95
2023-03-19T02:11:54.189Z,25.30
2023-03-19T02:14:21.507Z,23.27
2023-03-19T02:16:48.219Z,24.17
2023-03-19T02:19:22.102Z,23.65
2023-03-19T02:21:49.619Z,23.42
2023-03-19T02:24:22.975Z,24.35
2023-03-19T02:26:50.562Z,24.15
2023-03-19T02:29:17.415Z,22.92
2023-03-19T02:31:44.249Z,23.02
2023-03-19T02:34:38.715Z,23.10
2023-03-19T02:37:19.775Z,23.60
2023-03-19T02:40:04.713Z,23.08
2023-03-19T02:42:31.493Z,22.52
2023-03-19T02:44:58.411Z,21.70
2023-03-19T02:47:26.380Z,23.13
2023-03-19T02:49:53.224Z,24.23
2023-03-19T02:52:20.190Z,23.23
2023-03-19T02:54:46.688Z,23.30
2023-03-19T02:57:13.497Z,21.27
2023-03-19T02:59:40.120Z,21.02
2023-03-19T03:02:07.095Z,22.55
2023-03-19T03:04:34.823Z,22.17
2023-03-19T03:07:01.715Z,23.08
2023-03-19T03:09:28.169Z,23.38
2023-03-19T03:11:54.672Z,22.17
2023-03-19T03:14:21.109Z,22.45
2023-03-19T03:16:47.541Z,22.38
2023-03-19T03:19:14.218Z,23.27
2023-03-19T03:21:41.200Z,22.98
2023-03-19T03:24:07.993Z,22.08
2023-03-19T03:26:35.999Z,22.13
2023-03-19T03:29:02.491Z,23.42
2023-03-19T03:31:30.261Z,22.58
2023-03-19T03:33:56.732Z,22.65
2023-03-19T03:36:23.730Z,23.25
2023-03-19T03:38:50.333Z,21.92
2023-03-19T03:41:16.878Z,22.80
2023-03-19T03:43:43.307Z,22.33
2023-03-19T03:46:09.845Z,23.10
2023-03-19T03:48:36.294Z,23.17
2023-03-19T03:51:03.345Z,22.73
2023-03-19T03:53:32.459Z,22.38
2023-03-19T03:55:59.295Z,22.27
2023-03-19T03:58:25.987Z,22.02
2023-03-19T04:00:52.705Z,22.35
2023-03-19T04:03:19.521Z,21.88
2023-03-19T04:05:46.256Z,21.77
2023-03-19T04:08:12.756Z,20.92
2023-03-19T04:10:40.652Z,21.17
2023-03-19T04:13:07.102Z,21.98
2023-03-19T04:15:33.999Z,21.50
2023-03-19T04:18:01.100Z,21.05
2023-03-19T04:20:27.573Z,21.10
2023-03-19T04:22:53.974Z,20.08
2023-03-19T04:25:20.645Z,20.65
2023-03-19T04:27:47.131Z,20.48
2023-03-19T04:30:14.382Z,20.92
2023-03-19T04:32:41.061Z,20.45
2023-03-19T04:35:08.155Z,22.17
2023-03-19T04:37:34.988Z,21.08
2023-03-19T04:40:01.473Z,21.88
2023-03-19T04:42:28.043Z,21.25
2023-03-19T04:44:54.506Z,21.95
2023-03-19T04:47:21.034Z,21.85
2023-03-19T04:49:48.799Z,22.20
2023-03-19T04:52:18.913Z,22.00
2023-03-19T04:54:45.663Z,22.25
2023-03-19T04:57:12.431Z,22.48
2023-03-19T04:59:38.886Z,22.67
2023-03-19T05:02:06.096Z,22.08
2023-03-19T05:04:32.624Z,22.73
2023-03-19T05:06:59.264Z,23.48
2023-03-19T05:09:26.056Z,23.20
2023-03-19T05:11:52.541Z,22.92
2023-03-19T05:14:19.057Z,24.50
2023-03-19T05:16:45.505Z,23.08
2023-03-19T05:19:12.207Z,24.15
2023-03-19T05:21:39.031Z,23.70
2023-03-19T05:24:05.509Z,24.83
2023-03-19T05:26:32.309Z,23.83
2023-03-19T05:28:58.892Z,23.70
2023-03-19T05:31:25.705Z,25.10
2023-03-19T05:33:52.350Z,24.23
2023-03-19T05:36:19.094Z,24.20
2023-03-19T05:38:45.852Z,24.48
2023-03-19T05:41:12.344Z,24.98
2023-03-19T05:43:38.780Z,25.15
2023-03-19T05:46:05.338Z,24.70
2023-03-19T05:48:31.913Z,25.48
2023-03-19T05:50:59.319Z,24.92
2023-03-19T05:53:25.903Z,25.92
2023-03-19T05:55:52.335Z,26.40
2023-03-19T05:58:18.867Z,26.40
2023-03-19T06:00:45.864Z,25.55
2023-03-19T06:03:12.365Z,26.20
2023-03-19T06:05:39.269Z,25.05
2023-03-19T06:08:06.204Z,25.42
2023-03-19T06:10:35.353Z,25.17
2023-03-19T06:13:02.095Z,25.60
2023-03-19T06:15:28.540Z,25.10
2023-03-19T06:17:54.987Z,25.05
2023-03-19T06:20:21.885Z,25.30
2023-03-19T06:22:48.403Z,25.40
2023-03-19T06:25:15.144Z,25.98
2023-03-19T06:27:41.624Z,25.63
2023-03-19T06:30:09.167Z,24.58
2023-03-19T06:32:36.159Z,25.15
2023-03-19T06:35:03.115Z,24.25
2023-03-19T06:37:29.529Z,24.30
2023-03-19T06:39:56.189Z,25.20
2023-03-19T06:42:23.032Z,25.00
2023-03-19T06:44:52.317Z,24.60
2023-03-19T06:49:46.440Z,23.73
2023-03-19T06:52:12.931Z,23.33
2023-03-19T06:54:39.397Z,23.98
2023-03-19T06:57:06.007Z,22.73
2023-03-19T06:59:32.793Z,24.10
2023-03-19T07:01:59.353Z,24.48
2023-03-19T07:04:26.035Z,22.23
2023-03-19T07:06:52.575Z,23.02
2023-03-19T07:09:19.021Z,23.60
2023-03-19T07:11:45.730Z,22.77
2023-03-19T07:14:12.220Z,22.17
2023-03-19T07:16:39.447Z,22.42
2023-03-19T07:19:05.986Z,21.70
2023-03-19T07:21:32.577Z,21.85
2023-03-19T07:23:59.290Z,20.20
2023-03-19T07:26:25.803Z,20.10
2023-03-19T07:28:52.446Z,20.60
2023-03-19T07:31:19.014Z,19.73
2023-03-19T07:33:45.426Z,20.25
2023-03-19T07:36:12.152Z,19.77
2023-03-19T07:38:38.647Z,19.25
2023-03-19T07:41:05.394Z,19.85
2023-03-19T07:43:31.883Z,18.52
2023-03-19T07:45:59.449Z,19.05
2023-03-19T07:48:26.206Z,18.08
2023-03-19T07:50:53.259Z,19.23
2023-03-19T07:53:20.548Z,17.20
2023-03-19T07:55:47.748Z,17.27
2023-03-19T07:58:14.776Z,17.33
2023-03-19T08:00:41.452Z,17.60
2023-03-19T08:03:08.364Z,16.27
2023-03-19T08:05:34.941Z,16.95
2023-03-19T08:08:01.777Z,17.38
2023-03-19T08:10:28.449Z,16.30
2023-03-19T08:12:54.934Z,16.48
2023-03-19T08:15:21.475Z,16.08
2023-03-19T08:17:49.076Z,16.17
2023-03-19T08:20:16.666Z,16.90
2023-03-19T08:22:43.253Z,15.52
2023-03-19T08:25:10.959Z,16.08
2023-03-19T08:27:37.843Z,15.77
2023-03-19T08:30:07.507Z,16.63
2023-03-19T08:32:34.362Z,16.00
2023-03-19T08:35:01.492Z,16.42
2023-03-19T08:37:28.182Z,16.30
2023-03-19T08:39:54.806Z,16.52
2023-03-19T08:42:22.644Z,15.65
2023-03-19T08:44:49.947Z,16.40
2023-03-19T08:47:16.534Z,15.60
2023-03-19T08:49:42.949Z,14.82
2023-03-19T08:52:10.485Z,15.93
2023-03-19T08:54:43.420Z,15.82
2023-03-19T08:57:10.043Z,14.98
2023-03-19T08:59:36.619Z,14.32
2023-03-19T09:02:03.640Z,14.45
2023-03-19T09:04:37.503Z,14.38
2023-03-19T09:07:03.983Z,14.27
2023-03-19T09:09:30.605Z,13.52
2023-03-19T09:11:57.030Z,13.27
2023-03-19T09:14:23.817Z,13.68
2023-03-19T09:16:50.694Z,13.02
2023-03-19T09:19:17.486Z,12.63
2023-03-19T09:21:44.718Z,12.63
2023-03-19T09:24:11.509Z,12.85
2023-03-19T09:26:38.024Z,11.88
2023-03-19T09:29:04.953Z,12.48
2023-03-19T09:31:31.524Z,11.77
2023-03-19T09:33:58.108Z,12.32
2023-03-19T09:36:25.503Z,12.45
2023-03-19T09:38:52.523Z,12.40
2023-03-19T09:41:49.560Z,12.77
2023-03-19T09:44:30.842Z,13.13
2023-03-19T09:47:32.468Z,14.65
2023-03-19T09:50:21.091Z,13.02
2023-03-19T09:52:50.895Z,12.38
2023-03-19T09:55:23.395Z,13.18
2023-03-19T09:57:51.426Z,12.68
2023-03-19T10:00:24.639Z,14.30
2023-03-19T10:03:18.483Z,13.50
2023-03-19T10:05:57.107Z,13.95
2023-03-19T10:08:46.729Z,14.27
2023-03-19T10:11:31.118Z,14.15
2023-03-19T10:14:32.479Z,13.93
2023-03-19T10:17:01.139Z,13.00
2023-03-19T10:19:47.415Z,13.15
2023-03-19T10:22:24.628Z,13.50
2023-03-19T10:24:56.204Z,13.63
2023-03-19T10:27:26.155Z,13.98
2023-03-19T10:29:52.693Z,12.80
2023-03-19T10:32:59.711Z,13.43
2023-03-19T10:35:41.252Z,12.05
2023-03-19T10:38:25.516Z,12.35
2023-03-19T10:41:31.752Z,12.18
2023-03-19T10:44:12.122Z,12.02
2023-03-19T10:46:39.851Z,11.98
2023-03-19T10:49:13.066Z,11.90
2023-03-19T10:51:39.989Z,11.98
2023-03-19T10:54:23.682Z,12.55
2023-03-19T10:56:51.443Z,13.48
2023-03-19T10:59:23.002Z,12.75
2023-03-19T11:01:49.622Z,13.07
2023-03-19T11:04:22.034Z,13.43
2023-03-19T11:09:51.537Z,14.57
2023-03-19T11:12:35.251Z,13.40
2023-03-19T11:15:07.683Z,17.15
2023-03-19T11:17:39.613Z,15.38
2023-03-19T11:20:22.581Z,13.75
2023-03-19T11:22:52.483Z,13.50
2023-03-19T11:25:23.730Z,15.07
2023-03-19T11:28:06.960Z,14.70
2023-03-19T11:30:43.920Z,14.75
2023-03-19T11:33:33.082Z,12.63
2023-03-19T11:36:13.757Z,11.70
2023-03-19T11:38:54.656Z,12.70
2023-03-19T11:41:49.201Z,12.70
2023-03-19T11:44:47.967Z,13.55
2023-03-19T11:47:40.919Z,12.80
2023-03-19T11:50:19.574Z,12.68
2023-03-19T11:53:07.911Z,12.93
2023-03-19T11:55:48.039Z,12.82
2023-03-19T11:58:52.073Z,12.75
2023-03-19T12:01:21.421Z,13.60
2023-03-19T12:04:00.236Z,12.80
2023-03-19T12:06:54.887Z,13.23
2023-03-19T12:09:38.948Z,13.27
2023-03-19T12:12:17.783Z,13.35
2023-03-19T12:15:22.566Z,11.82
2023-03-19T12:18:21.646Z,12.85
2023-03-19T12:21:50.469Z,12.05
2023-03-19T12:24:34.055Z,11.50
2023-03-19T12:27:35.055Z,12.05
2023-03-19T12:30:30.643Z,10.93
2023-03-19T12:33:09.155Z,11.02
2023-03-19T12:35:38.979Z,11.00
2023-03-19T12:38:21.448Z,10.23
2023-03-19T12:40:53.589Z,10.98
2023-03-19T12:43:43.070Z,11.13
2023-03-19T12:46:16.067Z,11.20
2023-03-19T12:48:51.216Z,10.65
2023-03-19T12:51:21.700Z,11.43
2023-03-19T12:54:01.468Z,12.35
2023-03-19T12:56:32.901Z,11.95
2023-03-19T12:59:13.655Z,12.10
2023-03-19T13:01:47.685Z,11.93
2023-03-19T13:04:26.367Z,11.10
2023-03-19T13:07:03.167Z,11.63
2023-03-19T13:09:43.902Z,12.20
2023-03-19T13:12:15.991Z,12.23
2023-03-19T13:15:14.504Z,11.18
2023-03-19T13:17:49.040Z,12.18
2023-03-19T13:20:40.544Z,12.00
2023-03-19T13:23:09.878Z,11.70
2023-03-19T13:25:42.868Z,12.13
2023-03-19T13:28:22.481Z,11.55
2023-03-19T13:31:00.801Z,12.27
2023-03-19T13:33:30.377Z,12.00
2023-03-19T13:35:57.738Z,13.55
2023-03-19T13:38:34.890Z,12.77
2023-03-19T13:41:02.172Z,13.68
2023-03-19T13:43:29.190Z,12.50
2023-03-19T13:46:15.820Z,12.10
2023-03-19T13:48:45.766Z,14.02
2023-03-19T13:51:12.296Z,15.75
2023-03-19T13:53:53.576Z,13.43
2023-03-19T13:56:29.542Z,13.15
2023-03-19T13:59:15.655Z,12.90
2023-03-19T14:01:44.800Z,12.68
2023-03-19T14:04:22.812Z,13.67
2023-03-19T14:06:53.326Z,12.52
2023-03-19T14:09:40.058Z,11.55
2023-03-19T14:12:23.201Z,12.43
2023-03-19T14:15:00.709Z,12.77
2023-03-19T14:17:34.566Z,12.18
2023-03-19T14:20:25.867Z,12.93
2023-03-19T14:23:39.468Z,12.40
2023-03-19T14:26:24.251Z,12.88
2023-03-19T14:28:58.788Z,13.35
2023-03-19T14:32:05.765Z,12.57
2023-03-19T14:34:42.945Z,12.32
2023-03-19T14:37:24.987Z,13.55
2023-03-19T14:40:00.006Z,13.48
2023-03-19T14:42:32.352Z,13.27
2023-03-19T14:45:31.138Z,13.23
2023-03-19T14:48:16.610Z,13.98
2023-03-19T14:51:23.118Z,13.38
2023-03-19T14:54:21.578Z,14.30
2023-03-19T14:56:48.753Z,14.85
2023-03-19T14:59:15.955Z,14.90
2023-03-19T15:01:49.987Z,15.68
2023-03-19T15:04:17.979Z,15.35
2023-03-19T15:06:57.879Z,17.00
2023-03-19T15:09:33.543Z,19.52
2023-03-19T15:12:18.020Z,18.08
2023-03-19T15:15:15.438Z,17.67
2023-03-19T15:17:45.308Z,18.20
2023-03-19T15:20:18.746Z,19.25
2023-03-19T15:22:54.636Z,22.35
2023-03-19T15:25:21.697Z,21.60
2023-03-19T15:28:13.651Z,24.35
2023-03-19T15:30:53.837Z,22.45
2023-03-19T15:33:40.885Z,23.17
2023-03-19T15:36:13.433Z,22.20
2023-03-19T15:39:02.922Z,22.05
2023-03-19T15:41:32.425Z,22.00
2023-03-19T15:44:06.384Z,23.15
2023-03-19T15:46:37.545Z,23.58
2023-03-19T15:49:30.349Z,23.23
2023-03-19T15:52:01.529Z,22.85
2023-03-19T15:54:28.387Z,22.98
2023-03-19T15:56:56.377Z,22.67
2023-03-19T15:59:27.397Z,22.88
2023-03-19T16:01:59.442Z,22.45
2023-03-19T16:04:29.607Z,22.40
2023-03-19T16:06:59.095Z,23.73
2023-03-19T16:09:33.166Z,23.25
2023-03-19T16:12:01.277Z,22.70
2023-03-19T16:14:35.756Z,23.30
2023-03-19T16:17:13.576Z,23.10
2023-03-19T16:19:52.533Z,24.02
2023-03-19T16:22:33.106Z,22.10
2023-03-19T16:25:01.914Z,23.80
2023-03-19T16:27:36.248Z,25.70
2023-03-19T16:30:04.115Z,24.67
2023-03-19T16:32:32.107Z,24.83
2023-03-19T16:35:12.420Z,28.02
2023-03-19T16:37:46.686Z,28.70
2023-03-19T16:40:13.251Z,33.53
2023-03-19T16:42:51.233Z,29.92
2023-03-19T16:45:27.449Z,26.05
2023-03-19T16:47:56.966Z,24.88
2023-03-19T16:50:44.201Z,24.30
2023-03-19T16:53:22.243Z,24.50
2023-03-19T16:55:49.318Z,23.58
2023-03-19T16:58:19.038Z,24.55
2023-03-19T17:00:48.865Z,26.25
2023-03-19T17:03:17.916Z,28.65
2023-03-19T17:05:46.399Z,26.27
2023-03-19T17:08:13.512Z,26.75
2023-03-19T17:10:49.337Z,25.98
2023-03-19T17:13:28.264Z,25.48
2023-03-19T17:15:56.947Z,24.90
2023-03-19T17:18:25.262Z,25.40
2023-03-19T17:21:00.758Z,26.73
2023-03-19T17:23:27.903Z,25.75
2023-03-19T17:25:54.886Z,25.88
2023-03-19T17:28:21.971Z,27.70
2023-03-19T17:30:49.152Z,27.30
2023-03-19T17:33:23.724Z,29.38
2023-03-19T17:35:51.468Z,28.48
2023-03-19T17:38:19.262Z,29.98
2023-03-19T17:40:46.475Z,31.05
2023-03-19T17:43:13.637Z,30.48
2023-03-19T17:45:49.214Z,31.88
2023-03-19T17:48:25.779Z,32.22
2023-03-19T17:50:58.208Z,31.33
2023-03-19T17:53:24.925Z,28.80
2023-03-19T17:55:51.922Z,30.38
2023-03-19T17:58:21.233Z,29.98
2023-03-19T18:00:49.958Z,29.83
2023-03-19T18:03:18.708Z,28.08
2023-03-19T18:05:45.640Z,27.52
2023-03-19T18:08:17.527Z,28.85
2023-03-19T18:10:44.493Z,27.58
2023-03-19T18:13:11.234Z,29.30
2023-03-19T18:15:40.193Z,28.05
2023-03-19T18:18:11.172Z,27.92
2023-03-19T18:20:39.579Z,27.58
2023-03-19T18:23:06.792Z,30.80
2023-03-19T18:25:35.503Z,31.70
2023-03-19T18:28:03.603Z,32.00
2023-03-19T18:30:33.427Z,30.13
2023-03-19T18:33:02.852Z,32.10
2023-03-19T18:35:36.463Z,31.80
2023-03-19T18:38:03.344Z,34.33
2023-03-19T18:40:33.026Z,32.90
2023-03-19T18:42:59.620Z,32.72
2023-03-19T18:45:30.933Z,32.58
2023-03-19T18:47:57.914Z,33.78
2023-03-19T18:50:29.338Z,33.72
2023-03-19T18:52:56.417Z,33.25
2023-03-19T18:55:30.346Z,34.65
2023-03-19T18:58:00.527Z,37.00
2023-03-19T19:00:33.464Z,39.47
2023-03-19T19:03:01.929Z,40.05
2023-03-19T19:05:30.781Z,38.40
2023-03-19T19:07:58.898Z,42.22
2023-03-19T19:10:30.953Z,41.38
2023-03-19T19:12:57.705Z,36.53
2023-03-19T19:15:25.760Z,43.70
2023-03-19T19:17:52.878Z,40.47
2023-03-19T19:20:25.582Z,39.03
2023-03-19T19:22:53.056Z,39.53
2023-03-19T19:25:25.558Z,40.38
2023-03-19T19:28:01.050Z,41.38
2023-03-19T19:30:28.797Z,44.05
2023-03-19T19:32:55.307Z,43.50
2023-03-19T19:35:24.515Z,45.53
2023-03-19T19:37:51.674Z,60.58
2023-03-19T19:40:21.392Z,50.65
2023-03-19T19:42:52.471Z,49.03
2023-03-19T19:45:23.846Z,50.28
2023-03-19T19:47:50.359Z,55.20
2023-03-19T19:50:18.549Z,53.25
2023-03-19T19:52:45.435Z,55.85
2023-03-19T19:55:11.938Z,54.88
2023-03-19T19:57:42.837Z,51.13
2023-03-19T20:00:16.857Z,54.03
2023-03-19T20:02:43.288Z,56.22
2023-03-19T20:05:23.160Z,56.67
2023-03-19T20:07:55.436Z,51.47
2023-03-19T20:10:24.429Z,54.00
2023-03-19T20:12:54.313Z,53.83
2023-03-19T20:15:27.341Z,51.20
2023-03-19T20:17:54.815Z,49.03
2023-03-19T20:20:32.357Z,51.80
2023-03-19T20:23:01.516Z,41.60
2023-03-19T20:25:30.602Z,44.97
2023-03-19T20:27:59.754Z,48.42
2023-03-19T20:30:38.787Z,44.58
2023-03-19T20:33:06.124Z,44.13
2023-03-19T20:35:36.101Z,42.67
2023-03-19T20:38:05.279Z,42.22
2023-03-19T20:40:34.255Z,39.92
2023-03-19T20:43:01.724Z,42.03
2023-03-19T20:45:36.909Z,39.88
2023-03-19T20:48:04.207Z,38.65
2023-03-19T20:50:33.028Z,36.97
2023-03-19T20:53:03.601Z,40.30
2023-03-19T20:55:33.849Z,35.80
2023-03-19T20:58:03.833Z,37.75
2023-03-19T21:00:33.121Z,37.65
2023-03-19T21:03:01.712Z,34.45
2023-03-19T21:05:34.419Z,33.72
2023-03-19T21:08:01.312Z,35.35
2023-03-19T21:10:43.007Z,37.83
2023-03-19T21:13:13.501Z,35.45
2023-03-19T21:15:40.679Z,37.22
2023-03-19T21:18:08.388Z,37.15
2023-03-19T21:20:35.829Z,35.45
2023-03-19T21:23:08.737Z,36.38
2023-03-19T21:25:36.749Z,35.95
2023-03-19T21:28:07.246Z,37.30
2023-03-19T21:30:41.502Z,38.35
2023-03-19T21:33:28.906Z,39.55
2023-03-19T21:35:56.463Z,36.28
2023-03-19T21:38:23.827Z,38.63
2023-03-19T21:40:53.974Z,37.95
2023-03-19T21:43:23.453Z,34.92
2023-03-19T21:45:51.482Z,36.97
2023-03-19T21:48:24.019Z,37.35
2023-03-19T21:50:51.873Z,37.60
2023-03-19T21:53:19.431Z,39.45
2023-03-19T21:55:46.417Z,38.42
2023-03-19T21:58:14.836Z,39.30
2023-03-19T22:00:41.718Z,38.38
2023-03-19T22:03:16.192Z,38.65
2023-03-19T22:05:42.721Z,39.47
2023-03-19T22:08:09.315Z,40.38
2023-03-19T22:10:36.484Z,40.22
2023-03-19T22:13:03.804Z,43.92
2023-03-19T22:15:37.665Z,44.47
2023-03-19T22:18:07.256Z,41.90
2023-03-19T22:20:33.698Z,41.35
2023-03-19T22:23:00.443Z,40.88
2023-03-19T22:25:35.332Z,42.00
2023-03-19T22:28:07.635Z,44.03
2023-03-19T22:30:37.218Z,41.30
2023-03-19T22:33:21.405Z,43.38
2023-03-19T22:35:51.798Z,43.30
2023-03-19T22:40:48.333Z,41.72
2023-03-19T22:43:30.626Z,43.95
2023-03-19T22:46:07.717Z,44.45
2023-03-19T22:48:34.460Z,43.97
2023-03-19T22:51:01.133Z,45.00
2023-03-19T22:53:36.419Z,45.80
2023-03-19T22:56:04.092Z,43.30
2023-03-19T22:58:31.182Z,44.97
2023-03-19T23:00:58.173Z,47.33
2023-03-19T23:03:34.816Z,47.72
2023-03-19T23:06:05.392Z,45.80
2023-03-19T23:08:31.898Z,45.28
2023-03-19T23:10:58.527Z,48.20
2023-03-19T23:13:25.811Z,48.10
2023-03-19T23:15:58.779Z,47.28
2023-03-19T23:18:36.731Z,47.35
2023-03-19T23:21:03.991Z,46.15
2023-03-19T23:23:33.710Z,49.58
2023-03-19T23:26:00.543Z,47.90
2023-03-19T23:28:31.988Z,49.17
2023-03-19T23:31:02.870Z,47.65
2023-03-19T23:33:30.324Z,48.47
2023-03-19T23:35:59.452Z,48.35
2023-03-19T23:38:26.474Z,46.45
2023-03-19T23:40:53.913Z,49.88
2023-03-19T23:43:27.239Z,50.70
2023-03-19T23:45:55.202Z,50.05
2023-03-19T23:48:26.621Z,49.88
2023-03-19T23:50:53.571Z,49.60
2023-03-19T23:53:25.153Z,49.88
2023-03-19T23:56:01.040Z,49.75
2023-03-19T23:58:42.857Z,48.13
